sensor_id;sensor_type;location;lat;lon;timestamp;pressure;altitude;pressure_sealevel;temperature;humidity
62680;BME280;68213;40.528;44.712;2023-03-14T00:01:12;80394.94;;;2.89;55.72
62680;BME280;68213;40.528;44.712;2023-03-14T00:02:16;80383.72;;;2.68;56.33
62680;BME280;68213;40.528;44.712;2023-03-14T00:03:17;80397.72;;;2.73;56.55
62680;BME280;68213;40.528;44.712;2023-03-14T00:04:20;80389.16;;;2.63;56.72
62680;BME280;68213;40.528;44.712;2023-03-14T00:05:21;80399.09;;;2.57;57.33
62680;BME280;68213;40.528;44.712;2023-03-14T00:06:22;80396.63;;;2.59;56.08
62680;BME280;68213;40.528;44.712;2023-03-14T00:07:23;80391.84;;;2.55;54.92
62680;BME280;68213;40.528;44.712;2023-03-14T00:08:25;80401.84;;;2.59;55.19
62680;BME280;68213;40.528;44.712;2023-03-14T00:09:25;80402.16;;;2.63;54.26
62680;BME280;68213;40.528;44.712;2023-03-14T00:10:26;80400.69;;;2.69;54.18
62680;BME280;68213;40.528;44.712;2023-03-14T00:11:27;80401.69;;;2.74;53.71
62680;BME280;68213;40.528;44.712;2023-03-14T00:12:28;80399.63;;;2.73;54.32
62680;BME280;68213;40.528;44.712;2023-03-14T00:13:28;80402.75;;;2.71;54.49
62680;BME280;68213;40.528;44.712;2023-03-14T00:14:30;80402.91;;;2.73;54.40
62680;BME280;68213;40.528;44.712;2023-03-14T00:15:34;80400.47;;;2.75;55.07
62680;BME280;68213;40.528;44.712;2023-03-14T00:16:35;80400.00;;;2.69;54.31
62680;BME280;68213;40.528;44.712;2023-03-14T00:17:36;80410.16;;;2.75;55.37
62680;BME280;68213;40.528;44.712;2023-03-14T00:18:37;80411.91;;;2.90;54.75
62680;BME280;68213;40.528;44.712;2023-03-14T00:19:38;80404.13;;;3.07;52.81
62680;BME280;68213;40.528;44.712;2023-03-14T00:20:39;80410.50;;;3.24;52.43
62680;BME280;68213;40.528;44.712;2023-03-14T00:21:39;80381.97;;;3.06;52.58
62680;BME280;68213;40.528;44.712;2023-03-14T00:22:41;80380.94;;;3.19;52.27
62680;BME280;68213;40.528;44.712;2023-03-14T00:23:42;80404.03;;;3.42;52.17
62680;BME280;68213;40.528;44.712;2023-03-14T00:24:43;80400.66;;;3.49;51.71
62680;BME280;68213;40.528;44.712;2023-03-14T00:25:44;80407.13;;;3.31;53.46
62680;BME280;68213;40.528;44.712;2023-03-14T00:26:44;80404.97;;;3.37;52.21
62680;BME280;68213;40.528;44.712;2023-03-14T00:27:45;80408.56;;;3.42;51.85
62680;BME280;68213;40.528;44.712;2023-03-14T00:28:46;80412.81;;;3.47;50.35
62680;BME280;68213;40.528;44.712;2023-03-14T00:29:47;80417.09;;;3.52;50.72
62680;BME280;68213;40.528;44.712;2023-03-14T00:30:48;80410.13;;;3.55;50.31
62680;BME280;68213;40.528;44.712;2023-03-14T00:31:48;80408.91;;;3.56;49.99
62680;BME280;68213;40.528;44.712;2023-03-14T00:32:49;80409.72;;;3.58;50.31
62680;BME280;68213;40.528;44.712;2023-03-14T00:33:51;80407.28;;;3.60;50.41
62680;BME280;68213;40.528;44.712;2023-03-14T00:34:52;80400.72;;;3.59;50.61
62680;BME280;68213;40.528;44.712;2023-03-14T00:36:02;80417.00;;;3.60;52.54
62680;BME280;68213;40.528;44.712;2023-03-14T00:37:03;80407.09;;;3.48;53.58
62680;BME280;68213;40.528;44.712;2023-03-14T00:38:03;80413.22;;;3.43;53.17
62680;BME280;68213;40.528;44.712;2023-03-14T00:39:04;80406.81;;;3.44;51.99
62680;BME280;68213;40.528;44.712;2023-03-14T00:40:05;80411.84;;;3.42;51.72
62680;BME280;68213;40.528;44.712;2023-03-14T00:41:10;80401.00;;;3.36;51.30
62680;BME280;68213;40.528;44.712;2023-03-14T00:42:11;80415.97;;;3.45;53.41
62680;BME280;68213;40.528;44.712;2023-03-14T00:43:11;80416.09;;;3.47;51.98
62680;BME280;68213;40.528;44.712;2023-03-14T00:44:12;80418.38;;;3.33;53.79
62680;BME280;68213;40.528;44.712;2023-03-14T00:45:13;80427.31;;;3.23;53.52
62680;BME280;68213;40.528;44.712;2023-03-14T00:46:14;80411.66;;;3.13;53.10
62680;BME280;68213;40.528;44.712;2023-03-14T00:47:14;80420.75;;;3.22;52.75
62680;BME280;68213;40.528;44.712;2023-03-14T00:48:15;80393.56;;;3.05;51.26
62680;BME280;68213;40.528;44.712;2023-03-14T00:49:16;80419.44;;;3.30;50.71
62680;BME280;68213;40.528;44.712;2023-03-14T00:50:17;80419.81;;;3.27;51.34
62680;BME280;68213;40.528;44.712;2023-03-14T00:51:17;80424.34;;;3.26;51.01
62680;BME280;68213;40.528;44.712;2023-03-14T00:52:18;80407.44;;;3.17;51.91
62680;BME280;68213;40.528;44.712;2023-03-14T00:53:19;80425.00;;;3.27;51.66
62680;BME280;68213;40.528;44.712;2023-03-14T00:54:20;80423.34;;;3.22;52.01
62680;BME280;68213;40.528;44.712;2023-03-14T00:55:21;80414.03;;;3.18;51.44
62680;BME280;68213;40.528;44.712;2023-03-14T00:56:21;80426.50;;;3.20;51.58
62680;BME280;68213;40.528;44.712;2023-03-14T00:57:22;80429.91;;;3.23;51.99
62680;BME280;68213;40.528;44.712;2023-03-14T00:58:23;80433.75;;;3.22;50.59
62680;BME280;68213;40.528;44.712;2023-03-14T00:59:23;80429.91;;;3.23;51.06
62680;BME280;68213;40.528;44.712;2023-03-14T01:00:24;80425.56;;;3.25;51.78
62680;BME280;68213;40.528;44.712;2023-03-14T01:02:28;80434.13;;;3.18;52.61
62680;BME280;68213;40.528;44.712;2023-03-14T01:03:29;80435.19;;;3.15;52.67
62680;BME280;68213;40.528;44.712;2023-03-14T01:04:29;80446.41;;;3.17;52.06
62680;BME280;68213;40.528;44.712;2023-03-14T01:05:34;80440.53;;;3.17;51.45
62680;BME280;68213;40.528;44.712;2023-03-14T01:06:36;80441.22;;;3.17;51.79
62680;BME280;68213;40.528;44.712;2023-03-14T01:07:37;80439.31;;;3.18;52.12
62680;BME280;68213;40.528;44.712;2023-03-14T01:08:38;80439.47;;;3.20;51.98
62680;BME280;68213;40.528;44.712;2023-03-14T01:09:39;80441.84;;;3.08;52.61
62680;BME280;68213;40.528;44.712;2023-03-14T01:10:42;80430.16;;;2.99;53.31
62680;BME280;68213;40.528;44.712;2023-03-14T01:11:46;80442.91;;;3.05;52.40
62680;BME280;68213;40.528;44.712;2023-03-14T01:12:49;80446.06;;;3.04;51.74
62680;BME280;68213;40.528;44.712;2023-03-14T01:13:50;80438.94;;;3.04;51.37
62680;BME280;68213;40.528;44.712;2023-03-14T01:14:51;80443.44;;;3.04;51.48
62680;BME280;68213;40.528;44.712;2023-03-14T01:15:51;80450.09;;;3.14;51.42
62680;BME280;68213;40.528;44.712;2023-03-14T01:16:52;80451.59;;;3.17;51.38
62680;BME280;68213;40.528;44.712;2023-03-14T01:17:52;80447.28;;;3.20;51.11
62680;BME280;68213;40.528;44.712;2023-03-14T01:18:53;80449.31;;;3.22;51.43
62680;BME280;68213;40.528;44.712;2023-03-14T01:19:56;80450.69;;;3.23;51.39
62680;BME280;68213;40.528;44.712;2023-03-14T01:20:57;80451.91;;;3.22;51.43
62680;BME280;68213;40.528;44.712;2023-03-14T01:21:58;80444.91;;;3.14;52.15
62680;BME280;68213;40.528;44.712;2023-03-14T01:22:58;80448.72;;;3.13;53.05
62680;BME280;68213;40.528;44.712;2023-03-14T01:24:00;80450.16;;;3.07;53.38
62680;BME280;68213;40.528;44.712;2023-03-14T01:25:01;80447.19;;;3.10;53.76
62680;BME280;68213;40.528;44.712;2023-03-14T01:26:02;80453.31;;;3.05;53.70
62680;BME280;68213;40.528;44.712;2023-03-14T01:27:05;80447.03;;;3.08;53.08
62680;BME280;68213;40.528;44.712;2023-03-14T01:28:05;80445.81;;;3.09;52.69
62680;BME280;68213;40.528;44.712;2023-03-14T01:29:06;80428.94;;;3.00;52.75
62680;BME280;68213;40.528;44.712;2023-03-14T01:30:07;80446.66;;;3.12;52.64
62680;BME280;68213;40.528;44.712;2023-03-14T01:31:10;80452.81;;;3.16;52.96
62680;BME280;68213;40.528;44.712;2023-03-14T01:32:11;80441.75;;;3.16;53.32
62680;BME280;68213;40.528;44.712;2023-03-14T01:33:11;80437.34;;;3.09;53.13
62680;BME280;68213;40.528;44.712;2023-03-14T01:34:14;80442.91;;;3.23;53.23
62680;BME280;68213;40.528;44.712;2023-03-14T01:35:17;80452.28;;;3.36;53.09
62680;BME280;68213;40.528;44.712;2023-03-14T01:36:18;80449.84;;;3.38;53.11
62680;BME280;68213;40.528;44.712;2023-03-14T01:37:19;80449.94;;;3.30;53.11
62680;BME280;68213;40.528;44.712;2023-03-14T01:38:20;80440.91;;;3.31;52.89
62680;BME280;68213;40.528;44.712;2023-03-14T01:39:21;80446.41;;;3.35;52.72
62680;BME280;68213;40.528;44.712;2023-03-14T01:40:21;80449.38;;;3.31;52.26
62680;BME280;68213;40.528;44.712;2023-03-14T01:41:24;80449.16;;;3.37;52.13
62680;BME280;68213;40.528;44.712;2023-03-14T01:42:25;80450.38;;;3.36;51.96
62680;BME280;68213;40.528;44.712;2023-03-14T01:43:26;80453.13;;;3.38;52.10
62680;BME280;68213;40.528;44.712;2023-03-14T01:44:27;80430.38;;;3.29;51.47
62680;BME280;68213;40.528;44.712;2023-03-14T01:47:06;80425.06;;;3.37;51.64
62680;BME280;68213;40.528;44.712;2023-03-14T01:48:07;80456.31;;;3.46;51.97
62680;BME280;68213;40.528;44.712;2023-03-14T01:49:32;80453.72;;;3.46;51.62
62680;BME280;68213;40.528;44.712;2023-03-14T01:50:38;80451.09;;;3.46;51.44
62680;BME280;68213;40.528;44.712;2023-03-14T01:51:44;80458.78;;;3.44;51.53
62680;BME280;68213;40.528;44.712;2023-03-14T01:52:49;80467.63;;;3.41;51.53
62680;BME280;68213;40.528;44.712;2023-03-14T01:53:58;80460.00;;;3.43;51.41
62680;BME280;68213;40.528;44.712;2023-03-14T01:55:06;80460.16;;;3.45;51.25
62680;BME280;68213;40.528;44.712;2023-03-14T01:56:11;80448.63;;;3.21;52.02
62680;BME280;68213;40.528;44.712;2023-03-14T01:57:27;80465.56;;;3.40;51.44
62680;BME280;68213;40.528;44.712;2023-03-14T01:58:30;80469.00;;;3.42;51.31
62680;BME280;68213;40.528;44.712;2023-03-14T01:59:38;80469.41;;;3.39;51.61
62680;BME280;68213;40.528;44.712;2023-03-14T02:00:40;80470.38;;;3.43;51.62
62680;BME280;68213;40.528;44.712;2023-03-14T02:01:43;80470.84;;;3.49;51.12
62680;BME280;68213;40.528;44.712;2023-03-14T02:03:09;80464.41;;;3.51;51.34
62680;BME280;68213;40.528;44.712;2023-03-14T02:04:11;80465.94;;;3.54;51.17
62680;BME280;68213;40.528;44.712;2023-03-14T02:05:17;80470.06;;;3.57;51.32
62680;BME280;68213;40.528;44.712;2023-03-14T02:06:23;80462.81;;;3.55;51.71
62680;BME280;68213;40.528;44.712;2023-03-14T02:07:37;80460.06;;;3.53;51.52
62680;BME280;68213;40.528;44.712;2023-03-14T02:08:42;80459.38;;;3.53;51.68
62680;BME280;68213;40.528;44.712;2023-03-14T02:09:48;80467.31;;;3.55;51.85
62680;BME280;68213;40.528;44.712;2023-03-14T02:10:50;80460.81;;;3.46;51.87
62680;BME280;68213;40.528;44.712;2023-03-14T02:11:51;80468.41;;;3.52;51.90
62680;BME280;68213;40.528;44.712;2023-03-14T02:12:53;80471.28;;;3.56;51.66
62680;BME280;68213;40.528;44.712;2023-03-14T02:13:57;80466.91;;;3.58;51.74
62680;BME280;68213;40.528;44.712;2023-03-14T02:14:59;80471.44;;;3.58;51.81
62680;BME280;68213;40.528;44.712;2023-03-14T02:16:00;80469.91;;;3.55;51.81
62680;BME280;68213;40.528;44.712;2023-03-14T02:17:03;80484.97;;;3.56;52.05
62680;BME280;68213;40.528;44.712;2023-03-14T02:18:05;80487.41;;;3.54;52.01
62680;BME280;68213;40.528;44.712;2023-03-14T02:19:08;80484.81;;;3.54;52.08
62680;BME280;68213;40.528;44.712;2023-03-14T02:22:34;80483.00;;;3.47;51.91
62680;BME280;68213;40.528;44.712;2023-03-14T02:26:12;80482.22;;;3.37;52.95
62680;BME280;68213;40.528;44.712;2023-03-14T02:27:17;80489.03;;;3.32;53.09
62680;BME280;68213;40.528;44.712;2023-03-14T02:28:18;80490.97;;;3.31;53.75
62680;BME280;68213;40.528;44.712;2023-03-14T02:29:19;80494.22;;;3.32;53.85
62680;BME280;68213;40.528;44.712;2023-03-14T02:30:25;80498.06;;;3.31;54.02
62680;BME280;68213;40.528;44.712;2023-03-14T02:31:26;80491.50;;;3.30;54.10
62680;BME280;68213;40.528;44.712;2023-03-14T02:32:29;80465.38;;;3.10;54.51
62680;BME280;68213;40.528;44.712;2023-03-14T02:33:31;80489.28;;;3.26;54.16
62680;BME280;68213;40.528;44.712;2023-03-14T02:34:32;80495.00;;;3.25;54.60
62680;BME280;68213;40.528;44.712;2023-03-14T02:35:44;80496.09;;;3.22;54.62
62680;BME280;68213;40.528;44.712;2023-03-14T02:36:47;80496.09;;;3.22;54.68
62680;BME280;68213;40.528;44.712;2023-03-14T02:37:52;80501.28;;;3.22;54.84
62680;BME280;68213;40.528;44.712;2023-03-14T02:41:19;80501.72;;;3.10;55.45
62680;BME280;68213;40.528;44.712;2023-03-14T02:42:20;80505.16;;;3.13;55.06
62680;BME280;68213;40.528;44.712;2023-03-14T02:43:21;80506.03;;;3.15;55.27
62680;BME280;68213;40.528;44.712;2023-03-14T02:44:23;80504.47;;;3.12;55.31
62680;BME280;68213;40.528;44.712;2023-03-14T02:46:25;80503.72;;;3.20;54.87
62680;BME280;68213;40.528;44.712;2023-03-14T02:47:30;80503.41;;;3.15;55.20
62680;BME280;68213;40.528;44.712;2023-03-14T02:49:46;80508.22;;;3.19;55.03
62680;BME280;68213;40.528;44.712;2023-03-14T02:50:48;80517.25;;;3.18;55.37
62680;BME280;68213;40.528;44.712;2023-03-14T02:51:50;80514.50;;;3.16;54.92
62680;BME280;68213;40.528;44.712;2023-03-14T02:52:51;80510.50;;;3.15;54.98
62680;BME280;68213;40.528;44.712;2023-03-14T02:53:52;80512.50;;;3.07;54.56
62680;BME280;68213;40.528;44.712;2023-03-14T02:54:52;80516.16;;;2.86;55.22
62680;BME280;68213;40.528;44.712;2023-03-14T02:55:53;80509.94;;;2.81;55.54
62680;BME280;68213;40.528;44.712;2023-03-14T02:56:54;80513.13;;;2.72;55.56
62680;BME280;68213;40.528;44.712;2023-03-14T02:57:54;80516.66;;;2.67;56.03
62680;BME280;68213;40.528;44.712;2023-03-14T02:58:55;80521.47;;;2.70;55.89
62680;BME280;68213;40.528;44.712;2023-03-14T02:59:58;80518.13;;;2.78;56.13
62680;BME280;68213;40.528;44.712;2023-03-14T03:01:00;80514.97;;;2.79;55.93
62680;BME280;68213;40.528;44.712;2023-03-14T03:02:00;80514.94;;;2.87;55.51
62680;BME280;68213;40.528;44.712;2023-03-14T03:03:01;80503.38;;;2.80;55.75
62680;BME280;68213;40.528;44.712;2023-03-14T03:04:02;80516.09;;;2.94;55.78
62680;BME280;68213;40.528;44.712;2023-03-14T03:05:03;80517.06;;;2.98;55.50
62680;BME280;68213;40.528;44.712;2023-03-14T03:06:04;80520.53;;;3.01;55.65
62680;BME280;68213;40.528;44.712;2023-03-14T03:07:04;80514.94;;;3.05;55.38
62680;BME280;68213;40.528;44.712;2023-03-14T03:08:05;80523.59;;;3.07;55.20
62680;BME280;68213;40.528;44.712;2023-03-14T03:09:08;80519.59;;;3.06;55.52
62680;BME280;68213;40.528;44.712;2023-03-14T03:10:09;80508.00;;;3.07;55.06
62680;BME280;68213;40.528;44.712;2023-03-14T03:11:10;80519.06;;;3.08;55.13
62680;BME280;68213;40.528;44.712;2023-03-14T03:12:11;80517.31;;;3.10;55.05
62680;BME280;68213;40.528;44.712;2023-03-14T03:13:12;80508.00;;;3.07;54.88
62680;BME280;68213;40.528;44.712;2023-03-14T03:14:12;80516.25;;;3.13;55.03
62680;BME280;68213;40.528;44.712;2023-03-14T03:15:13;80499.97;;;2.95;55.17
62680;BME280;68213;40.528;44.712;2023-03-14T03:16:14;80508.38;;;3.04;55.06
62680;BME280;68213;40.528;44.712;2023-03-14T03:17:15;80499.06;;;3.00;55.17
62680;BME280;68213;40.528;44.712;2023-03-14T03:18:16;80521.75;;;3.17;54.91
62680;BME280;68213;40.528;44.712;2023-03-14T03:19:17;80524.03;;;3.13;54.90
62680;BME280;68213;40.528;44.712;2023-03-14T03:20:18;80516.53;;;3.17;54.98
62680;BME280;68213;40.528;44.712;2023-03-14T03:21:18;80515.50;;;3.21;54.91
62680;BME280;68213;40.528;44.712;2023-03-14T03:22:25;80516.88;;;3.22;54.75
62680;BME280;68213;40.528;44.712;2023-03-14T03:23:26;80513.06;;;3.23;54.69
62680;BME280;68213;40.528;44.712;2023-03-14T03:24:27;80509.22;;;3.24;54.70
62680;BME280;68213;40.528;44.712;2023-03-14T03:25:28;80478.59;;;3.05;54.41
62680;BME280;68213;40.528;44.712;2023-03-14T03:26:29;80506.78;;;3.26;54.33
62680;BME280;68213;40.528;44.712;2023-03-14T03:27:33;80507.47;;;3.26;54.40
62680;BME280;68213;40.528;44.712;2023-03-14T03:28:34;80510.44;;;3.23;54.40
62680;BME280;68213;40.528;44.712;2023-03-14T03:29:35;80516.16;;;3.21;54.91
62680;BME280;68213;40.528;44.712;2023-03-14T03:30:40;80516.53;;;3.17;54.58
62680;BME280;68213;40.528;44.712;2023-03-14T03:31:41;80518.31;;;3.15;54.98
62680;BME280;68213;40.528;44.712;2023-03-14T03:32:42;80522.81;;;3.14;54.79
62680;BME280;68213;40.528;44.712;2023-03-14T03:33:45;80521.13;;;3.09;54.99
62680;BME280;68213;40.528;44.712;2023-03-14T03:34:46;80526.03;;;3.05;54.65
62680;BME280;68213;40.528;44.712;2023-03-14T03:35:51;80522.88;;;3.07;55.01
62680;BME280;68213;40.528;44.712;2023-03-14T03:36:56;80530.53;;;3.05;54.82
62680;BME280;68213;40.528;44.712;2023-03-14T03:37:56;80534.66;;;3.08;54.42
62680;BME280;68213;40.528;44.712;2023-03-14T03:38:59;80525.81;;;3.11;54.56
62680;BME280;68213;40.528;44.712;2023-03-14T03:40:00;80531.69;;;3.11;54.53
62680;BME280;68213;40.528;44.712;2023-03-14T03:41:08;80527.31;;;3.14;54.17
62680;BME280;68213;40.528;44.712;2023-03-14T03:42:09;80507.91;;;2.97;54.46
62680;BME280;68213;40.528;44.712;2023-03-14T03:43:11;80530.91;;;3.18;54.28
62680;BME280;68213;40.528;44.712;2023-03-14T03:44:12;80522.06;;;3.22;54.36
62680;BME280;68213;40.528;44.712;2023-03-14T03:45:13;80516.41;;;3.15;54.24
62680;BME280;68213;40.528;44.712;2023-03-14T03:46:13;80527.88;;;3.30;54.08
62680;BME280;68213;40.528;44.712;2023-03-14T03:47:14;80532.38;;;3.29;54.15
62680;BME280;68213;40.528;44.712;2023-03-14T03:48:15;80538.28;;;3.30;53.94
62680;BME280;68213;40.528;44.712;2023-03-14T03:50:24;80527.78;;;3.38;53.75
62680;BME280;68213;40.528;44.712;2023-03-14T03:51:25;80530.22;;;3.36;53.15
62680;BME280;68213;40.528;44.712;2023-03-14T03:52:26;80536.19;;;3.46;53.34
62680;BME280;68213;40.528;44.712;2023-03-14T03:53:27;80531.66;;;3.46;53.47
62680;BME280;68213;40.528;44.712;2023-03-14T03:54:28;80546.38;;;3.52;53.08
62680;BME280;68213;40.528;44.712;2023-03-14T03:55:31;80545.16;;;3.53;53.11
62680;BME280;68213;40.528;44.712;2023-03-14T03:56:32;80546.66;;;3.56;53.23
62680;BME280;68213;40.528;44.712;2023-03-14T03:57:33;80517.41;;;3.38;53.06
62680;BME280;68213;40.528;44.712;2023-03-14T03:58:34;80551.63;;;3.61;52.81
62680;BME280;68213;40.528;44.712;2023-03-14T03:59:34;80545.22;;;3.62;53.03
62680;BME280;68213;40.528;44.712;2023-03-14T04:00:40;80555.91;;;3.67;52.88
62680;BME280;68213;40.528;44.712;2023-03-14T04:01:41;80551.16;;;3.73;52.39
62680;BME280;68213;40.528;44.712;2023-03-14T04:02:42;80551.63;;;3.79;52.07
62680;BME280;68213;40.528;44.712;2023-03-14T04:03:42;80556.66;;;3.77;52.36
62680;BME280;68213;40.528;44.712;2023-03-14T04:04:43;80555.19;;;3.84;52.27
62680;BME280;68213;40.528;44.712;2023-03-14T04:05:44;80556.88;;;3.89;52.56
62680;BME280;68213;40.528;44.712;2023-03-14T04:06:44;80543.28;;;3.80;51.90
62680;BME280;68213;40.528;44.712;2023-03-14T04:07:45;80554.88;;;3.97;51.62
62680;BME280;68213;40.528;44.712;2023-03-14T04:08:46;80556.56;;;4.02;51.39
62680;BME280;68213;40.528;44.712;2023-03-14T04:09:47;80565.50;;;4.09;51.31
62680;BME280;68213;40.528;44.712;2023-03-14T04:10:47;80552.88;;;4.05;51.53
62680;BME280;68213;40.528;44.712;2023-03-14T04:11:48;80556.47;;;4.10;51.33
62680;BME280;68213;40.528;44.712;2023-03-14T04:12:49;80566.78;;;4.18;51.09
62680;BME280;68213;40.528;44.712;2023-03-14T04:13:49;80558.44;;;4.19;50.91
62680;BME280;68213;40.528;44.712;2023-03-14T04:14:50;80559.72;;;4.28;50.74
62680;BME280;68213;40.528;44.712;2023-03-14T04:15:52;80563.28;;;4.33;50.76
62680;BME280;68213;40.528;44.712;2023-03-14T04:16:53;80563.59;;;4.37;50.61
62680;BME280;68213;40.528;44.712;2023-03-14T04:17:58;80565.81;;;4.40;50.85
62680;BME280;68213;40.528;44.712;2023-03-14T04:18:59;80564.03;;;4.43;50.97
62680;BME280;68213;40.528;44.712;2023-03-14T04:20:00;80563.66;;;4.47;50.54
62680;BME280;68213;40.528;44.712;2023-03-14T04:21:01;80565.03;;;4.48;50.36
62680;BME280;68213;40.528;44.712;2023-03-14T04:22:02;80543.59;;;4.39;50.37
62680;BME280;68213;40.528;44.712;2023-03-14T04:23:02;80562.06;;;4.61;50.19
62680;BME280;68213;40.528;44.712;2023-03-14T04:24:03;80560.59;;;4.68;50.07
62680;BME280;68213;40.528;44.712;2023-03-14T04:25:05;80560.31;;;4.73;49.80
62680;BME280;68213;40.528;44.712;2023-03-14T04:26:09;80542.38;;;4.68;49.69
62680;BME280;68213;40.528;44.712;2023-03-14T04:27:09;80555.31;;;4.85;49.15
62680;BME280;68213;40.528;44.712;2023-03-14T04:28:10;80560.25;;;4.91;48.66
62680;BME280;68213;40.528;44.712;2023-03-14T04:29:11;80557.56;;;4.99;48.70
62680;BME280;68213;40.528;44.712;2023-03-14T04:30:11;80551.00;;;5.07;48.70
62680;BME280;68213;40.528;44.712;2023-03-14T04:31:15;80554.69;;;5.14;48.69
62680;BME280;68213;40.528;44.712;2023-03-14T04:32:18;80560.88;;;5.19;48.48
62680;BME280;68213;40.528;44.712;2023-03-14T04:33:19;80548.69;;;5.21;48.73
62680;BME280;68213;40.528;44.712;2023-03-14T04:34:20;80541.16;;;5.16;48.39
62680;BME280;68213;40.528;44.712;2023-03-14T04:35:20;80548.84;;;5.33;48.59
62680;BME280;68213;40.528;44.712;2023-03-14T04:36:22;80559.56;;;5.37;48.41
62680;BME280;68213;40.528;44.712;2023-03-14T04:37:23;80558.47;;;5.40;47.89
62680;BME280;68213;40.528;44.712;2023-03-14T04:38:23;80563.97;;;5.45;47.55
62680;BME280;68213;40.528;44.712;2023-03-14T04:39:24;80557.78;;;5.50;47.25
62680;BME280;68213;40.528;44.712;2023-03-14T04:40:25;80563.31;;;5.54;47.11
62680;BME280;68213;40.528;44.712;2023-03-14T04:41:25;80563.56;;;5.58;47.61
62680;BME280;68213;40.528;44.712;2023-03-14T04:42:26;80566.31;;;5.60;47.55
62680;BME280;68213;40.528;44.712;2023-03-14T04:43:27;80569.06;;;5.62;48.04
62680;BME280;68213;40.528;44.712;2023-03-14T04:44:28;80570.03;;;5.67;47.98
62680;BME280;68213;40.528;44.712;2023-03-14T04:45:29;80572.38;;;5.72;47.48
62680;BME280;68213;40.528;44.712;2023-03-14T04:47:35;80568.38;;;5.81;47.18
62680;BME280;68213;40.528;44.712;2023-03-14T04:48:35;80571.13;;;5.74;47.93
62680;BME280;68213;40.528;44.712;2023-03-14T04:49:37;80571.84;;;5.84;48.69
62680;BME280;68213;40.528;44.712;2023-03-14T04:50:38;80574.72;;;5.88;48.61
62680;BME280;68213;40.528;44.712;2023-03-14T04:51:39;80550.00;;;5.69;48.48
62680;BME280;68213;40.528;44.712;2023-03-14T04:52:39;80574.88;;;5.90;48.85
62680;BME280;68213;40.528;44.712;2023-03-14T04:53:40;80575.69;;;5.93;49.09
62680;BME280;68213;40.528;44.712;2023-03-14T04:54:41;80548.34;;;5.74;48.81
62680;BME280;68213;40.528;44.712;2023-03-14T04:55:42;80566.06;;;5.85;48.48
62680;BME280;68213;40.528;44.712;2023-03-14T04:56:43;80575.94;;;5.97;48.42
62680;BME280;68213;40.528;44.712;2023-03-14T04:57:43;80581.59;;;5.93;49.96
62680;BME280;68213;40.528;44.712;2023-03-14T04:58:44;80585.16;;;5.88;50.95
62680;BME280;68213;40.528;44.712;2023-03-14T04:59:45;80582.81;;;5.92;49.91
62680;BME280;68213;40.528;44.712;2023-03-14T05:00:48;80590.22;;;5.96;49.49
62680;BME280;68213;40.528;44.712;2023-03-14T05:01:48;80582.31;;;6.03;48.38
62680;BME280;68213;40.528;44.712;2023-03-14T05:02:50;80589.88;;;5.99;49.30
62680;BME280;68213;40.528;44.712;2023-03-14T05:03:51;80587.66;;;6.06;47.89
62680;BME280;68213;40.528;44.712;2023-03-14T05:04:51;80578.03;;;5.98;47.64
62680;BME280;68213;40.528;44.712;2023-03-14T05:05:52;80590.69;;;6.12;47.55
62680;BME280;68213;40.528;44.712;2023-03-14T05:06:53;80594.66;;;6.23;47.47
62680;BME280;68213;40.528;44.712;2023-03-14T05:07:53;80595.34;;;6.23;48.16
62680;BME280;68213;40.528;44.712;2023-03-14T05:08:54;80594.13;;;6.24;47.02
62680;BME280;68213;40.528;44.712;2023-03-14T05:09:55;80595.22;;;6.31;46.69
62680;BME280;68213;40.528;44.712;2023-03-14T05:10:56;80598.06;;;6.45;46.37
62680;BME280;68213;40.528;44.712;2023-03-14T05:11:57;80593.28;;;6.51;46.67
62680;BME280;68213;40.528;44.712;2023-03-14T05:12:58;80598.34;;;6.59;46.18
62680;BME280;68213;40.528;44.712;2023-03-14T05:13:59;80598.63;;;6.53;45.27
62680;BME280;68213;40.528;44.712;2023-03-14T05:14:59;80598.91;;;6.57;44.99
62680;BME280;68213;40.528;44.712;2023-03-14T05:16:05;80598.59;;;6.63;44.89
62680;BME280;68213;40.528;44.712;2023-03-14T05:17:06;80590.09;;;6.62;44.51
62680;BME280;68213;40.528;44.712;2023-03-14T05:18:07;80598.06;;;6.64;44.56
62680;BME280;68213;40.528;44.712;2023-03-14T05:19:08;80594.34;;;6.67;44.68
62680;BME280;68213;40.528;44.712;2023-03-14T05:20:09;80590.88;;;6.75;44.16
62680;BME280;68213;40.528;44.712;2023-03-14T05:21:12;80602.69;;;6.95;43.79
62680;BME280;68213;40.528;44.712;2023-03-14T05:22:13;80603.19;;;7.04;43.47
62680;BME280;68213;40.528;44.712;2023-03-14T05:23:14;80606.34;;;7.12;43.43
62680;BME280;68213;40.528;44.712;2023-03-14T05:24:15;80600.97;;;7.20;42.96
62680;BME280;68213;40.528;44.712;2023-03-14T05:25:15;80604.53;;;7.24;42.71
62680;BME280;68213;40.528;44.712;2023-03-14T05:26:16;80610.59;;;7.17;42.41
62680;BME280;68213;40.528;44.712;2023-03-14T05:27:17;80601.63;;;7.20;42.31
62680;BME280;68213;40.528;44.712;2023-03-14T05:28:17;80606.00;;;7.27;41.88
62680;BME280;68213;40.528;44.712;2023-03-14T05:29:18;80609.44;;;7.40;41.73
62680;BME280;68213;40.528;44.712;2023-03-14T05:30:19;80606.50;;;7.45;42.04
62680;BME280;68213;40.528;44.712;2023-03-14T05:31:20;80590.72;;;7.34;42.14
62680;BME280;68213;40.528;44.712;2023-03-14T05:32:20;80607.34;;;7.48;42.04
62680;BME280;68213;40.528;44.712;2023-03-14T05:33:24;80594.19;;;7.26;42.30
62680;BME280;68213;40.528;44.712;2023-03-14T05:34:24;80609.22;;;7.16;43.04
62680;BME280;68213;40.528;44.712;2023-03-14T05:35:25;80609.88;;;7.26;43.34
62680;BME280;68213;40.528;44.712;2023-03-14T05:36:25;80609.97;;;7.38;42.45
62680;BME280;68213;40.528;44.712;2023-03-14T05:37:26;80611.88;;;7.47;42.14
62680;BME280;68213;40.528;44.712;2023-03-14T05:38:27;80615.44;;;7.52;41.73
62680;BME280;68213;40.528;44.712;2023-03-14T05:39:28;80613.34;;;7.60;41.92
62680;BME280;68213;40.528;44.712;2023-03-14T05:40:28;80619.09;;;7.69;42.01
62680;BME280;68213;40.528;44.712;2023-03-14T05:41:29;80624.41;;;7.71;41.83
62680;BME280;68213;40.528;44.712;2023-03-14T05:42:30;80623.44;;;7.76;41.59